createdAt,value
2023-01-07T00:01:26.641Z,7.88
2023-01-07T00:03:54.100Z,9.25
2023-01-07T00:06:31.284Z,9.48
2023-01-07T00:08:58.530Z,9.30
2023-01-07T00:11:26.850Z,9.32
2023-01-07T00:13:54.391Z,8.20
2023-01-07T00:16:22.302Z,9.38
2023-01-07T00:18:49.459Z,11.18
2023-01-07T00:21:17.504Z,13.85
2023-01-07T00:23:44.917Z,16.90
2023-01-07T00:26:12.817Z,12.88
2023-01-07T00:28:40.532Z,12.15
2023-01-07T00:31:11.580Z,11.77
2023-01-07T00:33:51.742Z,12.88
2023-01-07T00:36:19.724Z,12.23
2023-01-07T00:38:46.824Z,10.18
2023-01-07T00:41:13.967Z,10.65
2023-01-07T00:43:41.059Z,10.93
2023-01-07T00:46:09.295Z,11.38
2023-01-07T00:48:36.460Z,11.85
2023-01-07T00:51:03.605Z,14.05
2023-01-07T00:53:30.703Z,13.95
2023-01-07T00:55:57.908Z,11.35
2023-01-07T00:58:26.040Z,12.52
2023-01-07T01:00:56.515Z,13.93
2023-01-07T01:03:23.940Z,16.27
2023-01-07T01:05:51.612Z,13.48
2023-01-07T01:08:18.884Z,16.85
2023-01-07T01:10:46.223Z,18.40
2023-01-07T01:13:18.392Z,18.33
2023-01-07T01:15:46.087Z,11.27
2023-01-07T01:18:13.249Z,16.50
2023-01-07T01:20:40.386Z,16.30
2023-01-07T01:23:07.528Z,18.63
2023-01-07T01:25:34.716Z,17.77
2023-01-07T01:28:01.795Z,14.43
2023-01-07T01:30:28.910Z,10.18
2023-01-07T01:32:56.050Z,8.10
2023-01-07T01:35:23.188Z,10.68
2023-01-07T01:37:50.323Z,9.98
2023-01-07T01:40:17.515Z,9.18
2023-01-07T01:42:44.661Z,10.15
2023-01-07T01:45:12.046Z,6.30
2023-01-07T01:47:53.004Z,8.73
2023-01-07T01:50:29.186Z,9.80
2023-01-07T01:52:56.319Z,10.30
2023-01-07T01:55:25.100Z,10.32
2023-01-07T01:57:53.486Z,14.02
2023-01-07T02:00:20.706Z,11.10
2023-01-07T02:02:49.128Z,10.10
2023-01-07T02:05:16.367Z,11.07
2023-01-07T02:07:43.506Z,7.03
2023-01-07T02:10:18.168Z,9.32
2023-01-07T02:12:48.175Z,6.72
2023-01-07T02:15:16.487Z,7.57
2023-01-07T02:17:58.579Z,12.07
2023-01-07T02:20:27.221Z,12.88
2023-01-07T02:22:57.363Z,8.55
2023-01-07T02:25:24.515Z,17.25
2023-01-07T02:27:57.790Z,18.45
2023-01-07T02:30:30.251Z,12.15
2023-01-07T02:32:59.128Z,12.00
2023-01-07T02:35:29.283Z,14.63
2023-01-07T02:38:22.606Z,15.15
2023-01-07T02:41:08.144Z,18.48
2023-01-07T02:43:43.591Z,18.98
2023-01-07T02:46:17.613Z,18.23
2023-01-07T02:48:45.176Z,15.65
2023-01-07T02:51:12.370Z,15.40
2023-01-07T02:53:39.964Z,18.25
2023-01-07T02:56:25.871Z,13.48
2023-01-07T02:58:56.888Z,14.20
2023-01-07T03:01:27.279Z,17.58
2023-01-07T03:04:13.270Z,13.77
2023-01-07T03:06:46.618Z,13.80
2023-01-07T03:09:23.433Z,11.80
2023-01-07T03:12:10.848Z,12.13
2023-01-07T03:14:42.061Z,14.43
2023-01-07T03:17:09.828Z,16.98
2023-01-07T03:19:37.321Z,15.18
2023-01-07T03:22:05.076Z,13.55
2023-01-07T03:24:32.234Z,13.27
2023-01-07T03:26:59.521Z,12.68
2023-01-07T03:29:26.629Z,12.80
2023-01-07T03:32:01.477Z,9.68
2023-01-07T03:34:28.738Z,11.40
2023-01-07T03:36:57.176Z,12.25
2023-01-07T03:39:25.042Z,11.10
2023-01-07T03:42:10.615Z,12.82
2023-01-07T03:44:37.830Z,15.02
2023-01-07T03:47:04.938Z,14.93
2023-01-07T03:49:32.356Z,12.13
2023-01-07T03:51:59.487Z,15.38
2023-01-07T03:54:26.590Z,12.80
2023-01-07T03:56:53.719Z,11.45
2023-01-07T03:59:20.860Z,13.65
2023-01-07T04:01:48.070Z,12.48
2023-01-07T04:04:15.305Z,10.50
2023-01-07T04:06:42.532Z,9.55
2023-01-07T04:09:09.675Z,9.25
2023-01-07T04:11:36.787Z,8.93
2023-01-07T04:14:03.928Z,7.28
2023-01-07T04:16:31.094Z,8.77
2023-01-07T04:18:58.238Z,11.32
2023-01-07T04:21:25.383Z,6.72
2023-01-07T04:23:52.487Z,6.88
2023-01-07T04:26:19.656Z,5.65
2023-01-07T04:28:46.781Z,6.03
2023-01-07T04:31:13.979Z,6.10
2023-01-07T04:33:41.143Z,5.53
2023-01-07T04:36:09.027Z,5.93
2023-01-07T04:38:36.145Z,13.23
2023-01-07T04:41:03.268Z,11.15
2023-01-07T04:43:30.445Z,9.95
2023-01-07T04:45:57.557Z,7.20
2023-01-07T04:48:24.688Z,7.65
2023-01-07T04:50:51.835Z,7.70
2023-01-07T04:53:18.926Z,9.35
2023-01-07T04:55:46.542Z,7.85
2023-01-07T04:58:13.765Z,8.77
2023-01-07T05:00:40.858Z,9.05
2023-01-07T05:03:08.016Z,9.30
2023-01-07T05:05:35.171Z,11.77
2023-01-07T05:08:02.292Z,14.27
2023-01-07T05:10:29.409Z,14.75
2023-01-07T05:12:56.548Z,14.80
2023-01-07T05:15:23.678Z,16.23
2023-01-07T05:17:50.778Z,17.23
2023-01-07T05:20:17.962Z,17.00
2023-01-07T05:22:46.369Z,17.30
2023-01-07T05:25:13.535Z,20.08
2023-01-07T05:27:40.685Z,19.40
2023-01-07T05:30:08.063Z,21.02
2023-01-07T05:32:35.207Z,21.90
2023-01-07T05:35:02.346Z,20.55
2023-01-07T05:37:29.470Z,18.98
2023-01-07T05:39:56.565Z,18.13
2023-01-07T05:42:23.707Z,17.33
2023-01-07T05:44:50.842Z,18.30
2023-01-07T05:47:18.260Z,19.08
2023-01-07T05:49:45.431Z,19.98
2023-01-07T05:52:12.611Z,19.25
2023-01-07T05:54:39.752Z,19.17
2023-01-07T05:57:06.884Z,19.73
2023-01-07T05:59:34.762Z,20.98
2023-01-07T06:02:02.214Z,18.92
2023-01-07T06:04:29.389Z,18.23
2023-01-07T06:06:56.484Z,17.23
2023-01-07T06:09:23.656Z,18.40
2023-01-07T06:11:50.765Z,16.17
2023-01-07T06:14:17.859Z,13.93
2023-01-07T06:16:44.959Z,14.50
2023-01-07T06:19:12.194Z,13.63
2023-01-07T06:21:39.312Z,12.88
2023-01-07T06:24:06.734Z,17.77
2023-01-07T06:26:33.889Z,14.80
2023-01-07T06:29:01.086Z,13.18
2023-01-07T06:31:28.258Z,12.95
2023-01-07T06:33:55.416Z,11.63
2023-01-07T06:36:22.545Z,10.32
2023-01-07T06:38:49.795Z,9.82
2023-01-07T06:41:16.931Z,12.50
2023-01-07T06:43:44.009Z,8.60
2023-01-07T06:46:11.369Z,10.80
2023-01-07T06:48:38.566Z,10.07
2023-01-07T06:51:05.740Z,14.20
2023-01-07T06:53:32.936Z,14.07
2023-01-07T06:56:00.112Z,13.87
2023-01-07T06:58:27.299Z,12.43
2023-01-07T07:00:54.494Z,11.60
2023-01-07T07:03:21.666Z,11.87
2023-01-07T07:05:48.763Z,13.50
2023-01-07T07:08:15.900Z,12.18
2023-01-07T07:10:43.027Z,17.25
2023-01-07T07:13:10.508Z,19.50
2023-01-07T07:15:37.925Z,17.13
2023-01-07T07:18:05.139Z,13.37
2023-01-07T07:20:32.321Z,16.80
2023-01-07T07:22:59.437Z,16.20
2023-01-07T07:25:26.581Z,21.97
2023-01-07T07:27:53.683Z,33.13
2023-01-07T07:30:20.809Z,33.53
2023-01-07T07:32:47.975Z,36.37
2023-01-07T07:35:15.110Z,36.90
2023-01-07T07:37:42.281Z,46.00
2023-01-07T07:40:09.742Z,50.10
2023-01-07T07:43:09.470Z,44.10
2023-01-07T07:45:25.023Z,54.23
2023-01-07T07:47:52.112Z,50.75
2023-01-07T07:50:19.304Z,43.45
2023-01-07T07:52:46.440Z,40.15
2023-01-07T07:55:20.794Z,63.83
2023-01-07T07:57:56.496Z,73.15
2023-01-07T08:00:23.647Z,65.20
2023-01-07T08:02:50.881Z,57.83
2023-01-07T08:05:18.124Z,67.10
2023-01-07T08:07:45.406Z,71.77
2023-01-07T08:10:12.511Z,36.38
2023-01-07T08:12:39.767Z,70.90
2023-01-07T08:15:07.294Z,79.00
2023-01-07T08:17:36.182Z,76.35
2023-01-07T08:20:03.802Z,63.37
2023-01-07T08:22:31.063Z,75.95
2023-01-07T08:24:58.199Z,71.53
2023-01-07T08:27:27.879Z,78.88
2023-01-07T08:29:55.325Z,73.43
2023-01-07T08:32:22.528Z,64.63
2023-01-07T08:34:49.700Z,69.70
2023-01-07T08:37:16.790Z,65.25
2023-01-07T08:39:43.896Z,61.72
2023-01-07T08:42:11.093Z,34.10
2023-01-07T08:44:38.202Z,33.20
2023-01-07T08:47:05.391Z,53.55
2023-01-07T08:49:32.591Z,53.10
2023-01-07T08:51:59.702Z,59.28
2023-01-07T08:54:26.815Z,67.13
2023-01-07T08:56:54.127Z,63.08
2023-01-07T08:59:21.250Z,58.72
2023-01-07T09:01:48.884Z,65.38
2023-01-07T09:04:16.105Z,61.83
2023-01-07T09:06:43.214Z,67.15
2023-01-07T09:09:11.864Z,57.97
2023-01-07T09:11:39.063Z,51.50
2023-01-07T09:14:06.180Z,53.47
2023-01-07T09:16:33.856Z,38.65
2023-01-07T09:19:01.067Z,33.92
2023-01-07T09:21:28.165Z,38.38
2023-01-07T09:23:55.348Z,38.72
2023-01-07T09:26:22.527Z,39.55
2023-01-07T09:28:49.662Z,33.67
2023-01-07T09:31:16.803Z,33.53
2023-01-07T09:33:43.959Z,31.98
2023-01-07T09:36:11.067Z,34.40
2023-01-07T09:38:38.234Z,43.53
2023-01-07T09:41:05.378Z,32.13
2023-01-07T09:44:00.565Z,33.70
2023-01-07T09:46:21.555Z,32.33
2023-01-07T09:48:49.833Z,30.42
2023-01-07T09:51:18.333Z,28.25
2023-01-07T09:53:52.469Z,28.08
2023-01-07T09:56:27.310Z,32.42
2023-01-07T09:58:54.836Z,30.55
2023-01-07T10:01:24.739Z,28.33
2023-01-07T10:04:10.910Z,21.13
2023-01-07T10:06:43.601Z,14.85
2023-01-07T10:09:18.015Z,14.27
2023-01-07T10:11:57.654Z,11.25
2023-01-07T10:14:27.805Z,12.65
2023-01-07T10:16:57.657Z,14.30
2023-01-07T10:19:45.467Z,16.92
2023-01-07T10:22:32.908Z,31.73
2023-01-07T10:25:01.417Z,19.92
2023-01-07T10:27:38.610Z,19.35
2023-01-07T10:30:06.624Z,18.92
2023-01-07T10:32:36.434Z,16.35
2023-01-07T10:35:03.689Z,17.23
2023-01-07T10:37:34.091Z,17.83
2023-01-07T10:40:01.329Z,17.23
2023-01-07T10:42:28.431Z,24.83
2023-01-07T10:45:16.042Z,37.13
2023-01-07T10:47:52.069Z,37.78
2023-01-07T10:50:28.070Z,31.38
2023-01-07T10:53:04.286Z,35.80
2023-01-07T10:55:50.243Z,36.53
2023-01-07T10:58:17.365Z,35.70
2023-01-07T11:00:46.558Z,32.50
2023-01-07T11:03:19.181Z,29.73
2023-01-07T11:05:46.342Z,35.42
2023-01-07T11:08:16.672Z,38.78
2023-01-07T11:10:43.831Z,32.78
2023-01-07T11:13:15.044Z,32.47
2023-01-07T11:15:53.003Z,36.90
2023-01-07T11:18:30.810Z,32.25
2023-01-07T11:20:58.425Z,24.40
2023-01-07T11:23:25.730Z,22.90
2023-01-07T11:25:52.861Z,28.58
2023-01-07T11:28:21.057Z,24.40
2023-01-07T11:30:56.120Z,24.80
2023-01-07T11:34:02.620Z,19.20
2023-01-07T11:36:12.283Z,19.20
2023-01-07T11:38:39.526Z,21.20
2023-01-07T11:41:07.685Z,20.95
2023-01-07T11:43:36.289Z,24.75
2023-01-07T11:46:19.732Z,27.05
2023-01-07T11:48:52.582Z,24.13
2023-01-07T11:51:19.905Z,21.65
2023-01-07T11:53:47.737Z,21.77
2023-01-07T11:56:15.418Z,18.90
2023-01-07T11:58:46.208Z,21.02
2023-01-07T12:01:14.602Z,18.58
2023-01-07T12:04:02.280Z,14.05
2023-01-07T12:06:33.584Z,14.48
2023-01-07T12:09:09.969Z,13.80
2023-01-07T12:11:37.639Z,12.15
2023-01-07T12:14:17.019Z,7.78
2023-01-07T12:16:47.003Z,11.05
2023-01-07T12:19:17.267Z,5.85
2023-01-07T12:21:59.659Z,4.18
2023-01-07T12:24:32.743Z,3.70
2023-01-07T12:27:03.928Z,3.83
2023-01-07T12:29:49.959Z,3.47
2023-01-07T12:32:37.336Z,4.78
2023-01-07T12:35:15.495Z,16.30
2023-01-07T12:37:43.517Z,53.55
2023-01-07T12:40:10.901Z,22.90
2023-01-07T12:42:41.824Z,12.07
2023-01-07T12:45:15.038Z,32.92
2023-01-07T12:47:44.230Z,19.73
2023-01-07T12:50:12.844Z,20.88
2023-01-07T12:52:46.075Z,17.00
2023-01-07T12:55:31.885Z,20.48
2023-01-07T12:58:17.941Z,15.63
2023-01-07T13:00:47.411Z,14.40
2023-01-07T13:03:33.526Z,15.95
2023-01-07T13:06:02.619Z,10.43
2023-01-07T13:08:35.690Z,10.65
2023-01-07T13:11:17.785Z,8.63
2023-01-07T13:13:46.052Z,15.40
2023-01-07T13:16:13.256Z,28.30
2023-01-07T13:18:40.471Z,25.60
2023-01-07T13:21:08.322Z,25.40
2023-01-07T13:23:38.550Z,24.42
2023-01-07T13:26:09.114Z,30.60
2023-01-07T13:28:51.616Z,29.00
2023-01-07T13:31:37.467Z,28.05
2023-01-07T13:34:17.394Z,40.58
2023-01-07T13:36:53.892Z,32.80
2023-01-07T13:39:39.894Z,36.05
2023-01-07T13:42:08.730Z,36.97
2023-01-07T13:44:54.767Z,43.88
2023-01-07T13:47:22.410Z,35.58
2023-01-07T13:49:57.382Z,73.97
2023-01-07T13:52:25.514Z,70.55
2023-01-07T13:54:52.599Z,66.82
2023-01-07T13:57:31.923Z,135.57
2023-01-07T13:59:59.644Z,146.98
2023-01-07T14:02:27.516Z,127.07
2023-01-07T14:05:04.536Z,127.45
2023-01-07T14:07:31.866Z,69.72
2023-01-07T14:09:58.956Z,87.22
2023-01-07T14:12:49.500Z,80.22
2023-01-07T14:15:49.271Z,40.17
2023-01-07T14:18:31.030Z,37.50
2023-01-07T14:21:02.835Z,39.20
2023-01-07T14:23:36.067Z,41.15
2023-01-07T14:26:18.267Z,45.22
2023-01-07T14:28:57.445Z,59.72
2023-01-07T14:31:25.731Z,55.28
2023-01-07T14:33:53.864Z,47.90
2023-01-07T14:36:21.071Z,28.42
2023-01-07T14:38:56.192Z,32.38
2023-01-07T14:41:23.408Z,41.53
2023-01-07T14:44:00.310Z,52.67
2023-01-07T14:46:27.496Z,51.72
2023-01-07T14:49:03.721Z,62.70
2023-01-07T14:51:30.866Z,68.13
2023-01-07T14:53:58.017Z,50.17
2023-01-07T14:56:44.045Z,62.15
2023-01-07T14:59:20.250Z,67.00
2023-01-07T15:01:53.321Z,51.45
2023-01-07T15:04:39.436Z,60.03
2023-01-07T15:07:08.536Z,56.42
2023-01-07T15:10:18.042Z,53.33
2023-01-07T15:13:04.030Z,45.38
2023-01-07T15:15:49.789Z,46.83
2023-01-07T15:18:16.988Z,57.85
2023-01-07T15:20:51.461Z,59.08
2023-01-07T15:23:22.559Z,57.33
2023-01-07T15:25:49.691Z,56.13
2023-01-07T15:28:35.934Z,71.43
2023-01-07T15:31:06.164Z,68.68
2023-01-07T15:33:33.278Z,59.15
2023-01-07T15:36:00.440Z,55.55
2023-01-07T15:38:36.698Z,58.33
2023-01-07T15:41:04.000Z,61.20
2023-01-07T15:43:31.144Z,66.10
2023-01-07T15:46:05.899Z,68.30
2023-01-07T15:48:33.099Z,68.90
2023-01-07T15:51:00.499Z,75.27
2023-01-07T15:53:28.494Z,78.50
2023-01-07T15:56:01.708Z,70.00
2023-01-07T15:58:48.865Z,69.53
2023-01-07T16:01:25.470Z,66.18
2023-01-07T16:03:53.752Z,73.40
2023-01-07T16:06:35.922Z,74.33
2023-01-07T16:09:04.471Z,68.88
2023-01-07T16:11:32.141Z,69.40
2023-01-07T16:14:00.082Z,72.37
2023-01-07T16:16:27.599Z,82.78
2023-01-07T16:18:55.720Z,95.73
2023-01-07T16:21:22.966Z,89.40
2023-01-07T16:23:50.097Z,86.60
2023-01-07T16:26:17.759Z,145.43
2023-01-07T16:28:46.712Z,156.87
2023-01-07T16:31:14.488Z,129.83
2023-01-07T16:33:41.884Z,117.60
2023-01-07T16:36:18.683Z,104.23
2023-01-07T16:38:45.936Z,102.30
2023-01-07T16:41:17.738Z,103.90
2023-01-07T16:43:45.101Z,109.57
2023-01-07T16:46:38.900Z,111.63
2023-01-07T16:49:11.888Z,113.67
2023-01-07T16:51:44.846Z,118.70
2023-01-07T16:54:29.513Z,138.27
2023-01-07T16:56:57.171Z,123.30
2023-01-07T16:59:25.822Z,136.53
2023-01-07T17:01:53.080Z,134.03
2023-01-07T17:04:21.930Z,127.93
2023-01-07T17:06:49.074Z,124.47
2023-01-07T17:09:19.362Z,129.87
2023-01-07T17:11:46.471Z,124.10
2023-01-07T17:14:32.797Z,116.27
2023-01-07T17:17:09.106Z,118.90
2023-01-07T17:19:40.176Z,106.33
2023-01-07T17:22:39.733Z,86.57
2023-01-07T17:25:09.558Z,88.57
2023-01-07T17:27:39.944Z,97.43
2023-01-07T17:30:07.343Z,99.77
2023-01-07T17:32:35.224Z,97.77
2023-01-07T17:35:03.543Z,116.90
2023-01-07T17:37:30.698Z,119.83
2023-01-07T17:39:57.940Z,112.70
2023-01-07T17:42:46.324Z,125.17
2023-01-07T17:45:17.074Z,116.83
2023-01-07T17:47:44.359Z,105.50
2023-01-07T17:50:15.047Z,110.50
2023-01-07T17:52:47.188Z,197.87
2023-01-07T17:55:19.603Z,144.03
2023-01-07T17:57:46.726Z,141.80
2023-01-07T18:00:17.514Z,139.93
2023-01-07T18:02:44.719Z,143.50
2023-01-07T18:05:13.910Z,147.20
2023-01-07T18:07:41.122Z,140.17
2023-01-07T18:10:08.567Z,145.70
2023-01-07T18:12:35.669Z,147.30
2023-01-07T18:15:03.150Z,146.57
2023-01-07T18:17:30.485Z,171.67
2023-01-07T18:19:57.601Z,190.93
2023-01-07T18:22:25.374Z,205.13
2023-01-07T18:24:52.593Z,212.80
2023-01-07T18:27:20.334Z,190.27
2023-01-07T18:29:47.497Z,232.03
2023-01-07T18:32:14.675Z,238.50
2023-01-07T18:34:41.976Z,257.63
2023-01-07T18:37:09.546Z,249.50
2023-01-07T18:39:36.697Z,232.33
2023-01-07T18:42:03.802Z,223.10
2023-01-07T18:44:31.080Z,207.63
2023-01-07T18:46:58.179Z,196.70
2023-01-07T18:49:25.368Z,168.40
2023-01-07T18:51:52.627Z,152.27
2023-01-07T18:54:19.862Z,131.97
2023-01-07T18:56:47.266Z,132.30
2023-01-07T18:59:14.529Z,130.17
2023-01-07T19:01:41.732Z,228.97
2023-01-07T19:04:09.112Z,252.07
2023-01-07T19:06:36.420Z,249.53
2023-01-07T19:09:03.574Z,234.27
2023-01-07T19:11:31.546Z,213.33
2023-01-07T19:13:58.733Z,219.87
2023-01-07T19:16:25.950Z,204.77
2023-01-07T19:18:53.163Z,215.67
2023-01-07T19:21:21.434Z,182.63
2023-01-07T19:23:48.944Z,203.53
2023-01-07T19:26:16.085Z,297.70
2023-01-07T19:28:43.267Z,292.13
2023-01-07T19:31:10.923Z,282.80
2023-01-07T19:33:38.342Z,229.87
2023-01-07T19:36:07.732Z,230.57
2023-01-07T19:38:38.116Z,258.17
2023-01-07T19:41:07.335Z,195.27
2023-01-07T19:43:34.708Z,194.97
2023-01-07T19:46:01.846Z,201.73
2023-01-07T19:48:28.979Z,185.07
2023-01-07T19:50:59.660Z,190.83
2023-01-07T19:53:27.007Z,184.57
2023-01-07T19:55:54.565Z,160.63
2023-01-07T19:58:22.099Z,145.47
2023-01-07T20:00:49.276Z,146.30
2023-01-07T20:03:16.445Z,107.70
2023-01-07T20:05:43.568Z,62.30
2023-01-07T20:08:10.668Z,50.17
2023-01-07T20:10:38.115Z,43.47
2023-01-07T20:13:06.414Z,46.87
2023-01-07T20:15:33.677Z,42.30
2023-01-07T20:18:00.861Z,63.37
2023-01-07T20:20:28.115Z,83.50
2023-01-07T20:22:55.392Z,114.67
2023-01-07T20:25:22.536Z,115.80
2023-01-07T20:27:49.635Z,118.80
2023-01-07T20:30:16.815Z,120.97
2023-01-07T20:32:43.972Z,127.17
2023-01-07T20:35:11.088Z,145.80
2023-01-07T20:37:38.295Z,146.80
2023-01-07T20:40:05.800Z,135.77
2023-01-07T20:42:33.022Z,126.27
2023-01-07T20:45:00.383Z,95.67
2023-01-07T20:47:27.721Z,42.20
2023-01-07T20:49:54.890Z,28.63
2023-01-07T20:52:21.991Z,27.80
2023-01-07T20:54:49.251Z,27.63
2023-01-07T20:57:16.360Z,29.90
2023-01-07T20:59:43.492Z,31.37
2023-01-07T21:02:16.975Z,36.00
2023-01-07T21:04:44.231Z,36.97
2023-01-07T21:07:11.370Z,38.63
2023-01-07T21:09:38.547Z,41.10
2023-01-07T21:12:05.851Z,43.60
2023-01-07T21:14:33.046Z,56.93
2023-01-07T21:17:00.343Z,54.87
2023-01-07T21:19:27.447Z,63.23
2023-01-07T21:21:54.553Z,64.57
2023-01-07T21:24:21.722Z,57.53
2023-01-07T21:26:48.913Z,84.93
2023-01-07T21:29:16.135Z,106.20
2023-01-07T21:31:45.277Z,129.93
2023-01-07T21:34:12.564Z,120.87
2023-01-07T21:36:40.450Z,127.23
2023-01-07T21:39:08.571Z,122.20
2023-01-07T21:41:35.802Z,106.60
2023-01-07T21:44:02.915Z,134.90
2023-01-07T21:46:30.082Z,127.57
2023-01-07T21:48:57.279Z,94.93
2023-01-07T21:51:25.506Z,74.60
2023-01-07T21:53:55.552Z,66.13
2023-01-07T21:56:22.915Z,57.60
2023-01-07T21:58:50.040Z,62.57
2023-01-07T22:01:17.672Z,105.57
2023-01-07T22:03:46.087Z,109.13
2023-01-07T22:06:18.813Z,87.23
2023-01-07T22:08:46.012Z,72.83
2023-01-07T22:11:16.337Z,59.80
2023-01-07T22:13:43.610Z,57.17
2023-01-07T22:16:10.808Z,59.97
2023-01-07T22:18:38.006Z,66.63
2023-01-07T22:21:05.192Z,62.77
2023-01-07T22:23:32.425Z,73.53
2023-01-07T22:26:03.385Z,75.27
2023-01-07T22:28:30.719Z,80.93
2023-01-07T22:30:57.895Z,73.43
2023-01-07T22:33:25.001Z,68.77
2023-01-07T22:35:52.240Z,76.03
2023-01-07T22:38:19.429Z,69.27
2023-01-07T22:40:46.521Z,73.57
2023-01-07T22:43:14.445Z,71.53
2023-01-07T22:45:43.172Z,86.70
2023-01-07T22:48:10.996Z,83.73
2023-01-07T22:50:38.166Z,73.27
2023-01-07T22:53:05.310Z,69.30
2023-01-07T22:55:32.785Z,74.83
2023-01-07T22:58:00.427Z,72.10
2023-01-07T23:00:46.853Z,73.27
2023-01-07T23:03:14.112Z,61.33
2023-01-07T23:05:41.320Z,53.23
2023-01-07T23:08:08.582Z,56.17
2023-01-07T23:10:38.843Z,65.47
2023-01-07T23:13:06.373Z,64.27
2023-01-07T23:15:36.965Z,67.00
2023-01-07T23:18:05.447Z,67.17
2023-01-07T23:20:35.804Z,65.13
2023-01-07T23:23:03.071Z,64.77
2023-01-07T23:25:30.190Z,53.97
2023-01-07T23:27:57.283Z,45.33
2023-01-07T23:30:24.572Z,41.93
2023-01-07T23:32:51.703Z,43.30
2023-01-07T23:35:18.835Z,44.70
2023-01-07T23:37:45.952Z,48.93
2023-01-07T23:40:13.152Z,55.70
2023-01-07T23:42:40.307Z,53.73
2023-01-07T23:45:07.765Z,43.10
2023-01-07T23:47:34.934Z,47.00
2023-01-07T23:50:02.092Z,46.60
2023-01-07T23:52:29.779Z,44.57
2023-01-07T23:54:56.919Z,48.47
2023-01-07T23:57:24.057Z,49.17
2023-01-07T23:59:51.304Z,49.37
